Time;durP1;ratioP1;P1;durP2;ratioP2;P2;SDS_P1;SDS_P2;PMS_P1;PMS_P2;Temp;Humidity;BMP_temperature;BMP_pressure;BME280_temperature;BME280_humidity;BME280_pressure;Samples;Min_cycle;Max_cycle;Signal;HPM_P1;HPM_P2
2021/05/13 00:01:26;;;;;;;;;;;;;;;17.58;47.52;100131.67;1807366;79;20214;-79
2021/05/13 00:03:53;;;;;;;;;;;;;;;17.58;47.51;100131.67;1806239;79;20228;-78
2021/05/13 00:06:19;;;;;;;;;;;;;;;17.55;47.50;100128.55;1803764;78;20634;-78
2021/05/13 00:08:45;;;;;;;;;;;;;;;17.53;47.50;100126.04;1802715;79;20196;-77
2021/05/13 00:11:11;;;;;;;;;;;;;;;17.52;47.55;100120.31;1793956;78;20204;-78
2021/05/13 00:13:39;;;;;;;;;;;;;;;17.49;47.72;100118.05;1794841;78;20197;-78
2021/05/13 00:16:06;;;;;;;;;;;;;;;17.50;47.86;100122.42;1797725;78;20283;-77
2021/05/13 00:18:32;;;;;;;;;;;;;;;17.55;47.89;100121.27;1790533;78;20220;-78
2021/05/13 00:20:58;;;;;;;;;;;;;;;17.59;47.89;100125.21;1791203;78;20236;-78
2021/05/13 00:23:25;;;;;;;;;;;;;;;17.63;47.84;100135.94;1795332;78;20227;-78
2021/05/13 00:25:51;;;;;;;;;;;;;;;17.61;47.76;100129.88;1778848;78;20243;-78
2021/05/13 00:28:19;;;;;;;;;;;;;;;17.62;47.77;100130.22;1797381;78;20155;-78
2021/05/13 00:30:45;;;;;;;;;;;;;;;17.72;47.55;100131.13;1777342;80;20183;-78
2021/05/13 00:33:11;;;;;;;;;;;;;;;17.73;47.53;100123.30;1784174;78;20145;-78
2021/05/13 00:35:37;;;;;;;;;;;;;;;17.79;47.44;100124.34;1796578;79;20573;-78
2021/05/13 00:38:03;;;;;;;;;;;;;;;17.79;47.33;100131.12;1801552;79;20244;-78
2021/05/13 00:40:29;;;;;;;;;;;;;;;17.78;47.14;100129.46;1795498;79;20213;-78
2021/05/13 00:42:55;;;;;;;;;;;;;;;17.77;47.06;100129.16;1797845;79;20228;-78
2021/05/13 00:45:21;;;;;;;;;;;;;;;17.76;47.08;100128.33;1802370;79;20251;-78
2021/05/13 00:48:01;;;;;;;;;;;;;;;17.75;46.93;100120.70;1798637;79;20245;-78
2021/05/13 00:50:16;;;;;;;;;;;;;;;17.74;46.66;100120.40;1793137;79;20282;-79
2021/05/13 00:52:42;;;;;;;;;;;;;;;17.65;46.67;100112.69;1800110;79;20554;-78
2021/05/13 00:55:10;;;;;;;;;;;;;;;17.57;46.78;100112.91;1796251;79;20263;-79
2021/05/13 00:57:36;;;;;;;;;;;;;;;17.52;46.86;100114.91;1796408;79;20256;-78
2021/05/13 01:00:18;;;;;;;;;;;;;;;17.52;46.77;100118.14;1799169;79;20228;-79
2021/05/13 01:02:31;;;;;;;;;;;;;;;17.54;46.65;100125.55;1797835;79;20193;-78
2021/05/13 01:04:57;;;;;;;;;;;;;;;17.55;46.58;100115.84;1797792;79;20663;-79
2021/05/13 01:07:23;;;;;;;;;;;;;;;17.55;46.44;100117.20;1799614;79;20275;-79
2021/05/13 01:09:49;;;;;;;;;;;;;;;17.49;46.42;100122.12;1799100;79;20216;-78
2021/05/13 01:12:17;;;;;;;;;;;;;;;17.41;46.46;100124.52;1797270;79;20299;-78
2021/05/13 01:14:46;;;;;;;;;;;;;;;17.38;46.55;100125.45;1796905;79;20304;-78
2021/05/13 01:19:45;;;;;;;;;;;;;;;17.37;46.50;100128.69;1795547;79;20534;-78
2021/05/13 01:22:12;;;;;;;;;;;;;;;17.35;46.44;100127.22;1799926;79;20153;-78
2021/05/13 01:24:39;;;;;;;;;;;;;;;17.28;46.48;100122.34;1800203;79;20237;-77
2021/05/13 01:27:05;;;;;;;;;;;;;;;17.21;46.60;100122.34;1794733;79;21187;-77
2021/05/13 01:29:32;;;;;;;;;;;;;;;17.12;46.75;100117.69;1795487;79;20225;-78
2021/05/13 01:31:58;;;;;;;;;;;;;;;17.07;46.91;100121.52;1796666;79;20177;-78
2021/05/13 01:34:24;;;;;;;;;;;;;;;17.05;47.02;100120.91;1801668;79;20193;-77
2021/05/13 01:36:50;;;;;;;;;;;;;;;17.09;46.91;100119.45;1798891;79;20248;-78
2021/05/13 01:39:18;;;;;;;;;;;;;;;17.14;46.84;100118.30;1795638;79;20267;-78
2021/05/13 01:41:43;;;;;;;;;;;;;;;17.03;46.99;100112.67;1804777;79;20388;-76
2021/05/13 01:44:09;;;;;;;;;;;;;;;16.98;47.08;100116.00;1807562;79;20251;-77
2021/05/13 01:46:36;;;;;;;;;;;;;;;16.93;47.18;100110.39;1808270;79;20138;-77
2021/05/13 01:49:03;;;;;;;;;;;;;;;16.91;47.28;100109.25;1809150;79;20233;-77
2021/05/13 01:51:28;;;;;;;;;;;;;;;16.99;47.19;100113.11;1739644;81;20167;-76
2021/05/13 01:53:55;;;;;;;;;;;;;;;17.00;47.20;100115.30;1732508;81;20258;-77
2021/05/13 01:56:21;;;;;;;;;;;;;;;17.06;47.00;100115.80;1736654;82;20258;-77
2021/05/13 01:58:47;;;;;;;;;;;;;;;17.03;46.96;100113.50;1732367;82;20455;-77
2021/05/13 02:01:15;;;;;;;;;;;;;;;16.99;46.91;100119.05;1732305;82;20610;-76
2021/05/13 02:03:45;;;;;;;;;;;;;;;16.94;46.94;100117.45;1732427;82;20290;-78
2021/05/13 02:06:11;;;;;;;;;;;;;;;16.74;47.23;100117.45;1732559;81;20284;-77
2021/05/13 02:08:37;;;;;;;;;;;;;;;16.66;47.33;100119.80;1735408;82;20296;-78
2021/05/13 02:11:03;;;;;;;;;;;;;;;16.62;47.33;100115.88;1735620;82;20280;-77
2021/05/13 02:13:29;;;;;;;;;;;;;;;16.59;47.42;100123.55;1734808;82;20202;-78
2021/05/13 02:15:57;;;;;;;;;;;;;;;16.57;47.48;100123.73;1732300;82;20282;-77
2021/05/13 02:18:23;;;;;;;;;;;;;;;16.54;47.45;100117.41;1730031;82;20689;-78
2021/05/13 02:20:49;;;;;;;;;;;;;;;16.48;47.45;100117.69;1731643;82;20237;-79
2021/05/13 02:23:15;;;;;;;;;;;;;;;16.51;47.28;100120.52;1733793;82;20298;-79
2021/05/13 02:25:46;;;;;;;;;;;;;;;16.49;47.37;100118.55;1735812;82;20220;-78
2021/05/13 02:28:11;;;;;;;;;;;;;;;16.51;47.38;100109.70;1736143;82;20280;-78
2021/05/13 02:30:37;;;;;;;;;;;;;;;16.51;47.24;100116.45;1736296;82;20251;-78
2021/05/13 02:33:03;;;;;;;;;;;;;;;16.48;47.15;100122.27;1733664;82;20218;-78
2021/05/13 02:35:29;;;;;;;;;;;;;;;16.43;47.10;100126.94;1735098;82;20324;-77
2021/05/13 02:37:55;;;;;;;;;;;;;;;16.38;47.10;100135.35;1737196;82;20199;-78
2021/05/13 02:40:21;;;;;;;;;;;;;;;16.29;47.20;100133.88;1732736;82;20207;-79
2021/05/13 02:42:47;;;;;;;;;;;;;;;16.24;47.40;100143.94;1736986;82;20330;-78
2021/05/13 02:45:14;;;;;;;;;;;;;;;16.24;47.63;100148.82;1737634;82;20267;-78
2021/05/13 02:47:40;;;;;;;;;;;;;;;16.31;47.70;100149.38;1732227;82;20775;-79
2021/05/13 02:50:08;;;;;;;;;;;;;;;16.41;47.60;100148.47;1736749;82;20593;-80
2021/05/13 02:52:34;;;;;;;;;;;;;;;16.52;47.40;100149.21;1734704;82;20267;-80
2021/05/13 02:54:59;;;;;;;;;;;;;;;16.62;47.02;100151.02;1741952;82;20196;-80
2021/05/13 02:57:25;;;;;;;;;;;;;;;16.62;46.85;100145.62;1748547;82;20369;-79
2021/05/13 02:59:57;;;;;;;;;;;;;;;16.61;46.84;100153.91;1748467;82;20339;-79
2021/05/13 03:02:20;;;;;;;;;;;;;;;16.55;46.94;100158.80;1747751;82;20331;-79
2021/05/13 03:04:45;;;;;;;;;;;;;;;16.53;47.02;100163.56;1748571;82;20279;-79
2021/05/13 03:07:11;;;;;;;;;;;;;;;16.55;47.02;100160.15;1731435;80;20278;-78
2021/05/13 03:09:47;;;;;;;;;;;;;;;16.55;47.01;100156.92;1732231;82;20424;-79
2021/05/13 03:12:08;;;;;;;;;;;;;;;16.52;47.09;100157.33;1734714;82;20297;-77
2021/05/13 03:14:35;;;;;;;;;;;;;;;16.48;47.05;100161.47;1731549;82;20374;-78
2021/05/13 03:17:02;;;;;;;;;;;;;;;16.43;47.13;100161.25;1735989;82;20282;-79
2021/05/13 03:19:40;;;;;;;;;;;;;;;16.42;47.14;100167.18;1734141;82;20296;-79
2021/05/13 03:22:06;;;;;;;;;;;;;;;16.43;47.14;100162.60;1735311;82;20310;-77
2021/05/13 03:24:34;;;;;;;;;;;;;;;16.38;47.08;100165.91;1732023;82;20291;-78
2021/05/13 03:27:46;;;;;;;;;;;;;;;16.33;47.08;100167.05;1738872;82;20196;-79
2021/05/13 03:29:24;;;;;;;;;;;;;;;16.34;47.09;100163.30;1727782;82;20314;-78
2021/05/13 03:31:51;;;;;;;;;;;;;;;16.41;46.91;100162.81;1744889;82;20208;-79
2021/05/13 03:34:16;;;;;;;;;;;;;;;16.46;46.85;100158.15;1733927;82;20223;-78
2021/05/13 03:36:43;;;;;;;;;;;;;;;16.49;46.75;100161.80;1726558;81;20283;-79
2021/05/13 03:39:09;;;;;;;;;;;;;;;16.53;46.63;100163.03;1740191;82;20225;-79
2021/05/13 03:41:35;;;;;;;;;;;;;;;16.55;46.61;100158.27;1747236;82;20304;-79
2021/05/13 03:44:02;;;;;;;;;;;;;;;16.52;46.52;100162.73;1747883;82;20603;-79
2021/05/13 03:46:30;;;;;;;;;;;;;;;16.46;46.75;100162.20;1733002;82;20255;-79
2021/05/13 03:48:56;;;;;;;;;;;;;;;16.45;46.84;100157.84;1719931;81;20313;-79
2021/05/13 03:51:23;;;;;;;;;;;;;;;16.42;47.00;100166.34;1719718;83;20251;-80
2021/05/13 03:53:49;;;;;;;;;;;;;;;16.45;47.07;100165.95;1719509;82;20310;-79
2021/05/13 03:56:15;;;;;;;;;;;;;;;16.50;47.00;100163.47;1735479;82;20852;-79
2021/05/13 03:58:46;;;;;;;;;;;;;;;16.51;46.95;100163.77;1733238;81;20419;-80
2021/05/13 04:01:15;;;;;;;;;;;;;;;16.49;47.04;100161.28;1745084;82;20312;-79
2021/05/13 04:03:39;;;;;;;;;;;;;;;16.51;47.03;100165.13;1718959;81;20275;-79
2021/05/13 04:06:05;;;;;;;;;;;;;;;16.42;46.39;100165.83;1721355;82;20751;-79
2021/05/13 04:08:31;;;;;;;;;;;;;;;16.34;46.37;100169.23;1728683;82;20263;-80
2021/05/13 04:10:57;;;;;;;;;;;;;;;16.27;46.33;100166.52;1735043;82;20295;-78
2021/05/13 04:13:23;;;;;;;;;;;;;;;16.24;46.40;100160.98;1729222;82;20283;-79
2021/05/13 04:15:49;;;;;;;;;;;;;;;16.25;46.11;100165.86;1733870;82;20311;-78
2021/05/13 04:18:16;;;;;;;;;;;;;;;16.23;46.27;100171.48;1734569;81;20296;-80
2021/05/13 04:20:42;;;;;;;;;;;;;;;16.26;46.39;100182.42;1743119;80;20234;-79
2021/05/13 04:23:09;;;;;;;;;;;;;;;16.31;46.22;100178.59;1744174;82;20216;-79
2021/05/13 04:25:35;;;;;;;;;;;;;;;16.36;46.10;100173.93;1734422;82;20286;-80
2021/05/13 04:28:01;;;;;;;;;;;;;;;16.43;46.28;100180.17;1732649;82;20311;-78
2021/05/13 04:30:27;;;;;;;;;;;;;;;16.52;46.15;100180.30;1730394;82;20706;-79
2021/05/13 04:32:53;;;;;;;;;;;;;;;16.62;46.41;100184.83;1741903;82;20226;-79
2021/05/13 04:35:19;;;;;;;;;;;;;;;16.80;46.31;100187.47;1730791;81;20244;-79
2021/05/13 04:37:45;;;;;;;;;;;;;;;16.93;45.83;100178.86;1797654;79;20189;-78
2021/05/13 04:40:11;;;;;;;;;;;;;;;17.04;45.94;100178.78;1789911;78;20351;-78
2021/05/13 04:42:37;;;;;;;;;;;;;;;17.22;45.80;100179.52;1744127;81;20269;-77
2021/05/13 04:45:05;;;;;;;;;;;;;;;17.38;45.25;100186.37;1720498;81;20170;-80
2021/05/13 04:50:02;;;;;;;;;;;;;;;17.59;45.10;100186.67;1782558;78;20586;-79
2021/05/13 04:52:30;;;;;;;;;;;;;;;17.64;44.60;100194.99;1790955;78;20151;-79
2021/05/13 04:54:57;;;;;;;;;;;;;;;17.62;44.45;100196.57;1792061;78;20221;-79
2021/05/13 04:57:24;;;;;;;;;;;;;;;17.65;44.63;100196.13;1759645;79;20242;-79
2021/05/13 04:59:49;;;;;;;;;;;;;;;17.74;44.38;100194.06;1763639;78;20163;-79
2021/05/13 05:02:15;;;;;;;;;;;;;;;17.80;44.43;100196.44;1791504;79;20145;-79
2021/05/13 05:04:41;;;;;;;;;;;;;;;17.83;44.30;100189.26;1792354;78;20213;-79
2021/05/13 05:07:07;;;;;;;;;;;;;;;17.84;44.45;100190.39;1790576;79;20224;-77
2021/05/13 05:09:33;;;;;;;;;;;;;;;17.86;44.17;100186.96;1791891;79;20157;-81
2021/05/13 05:11:59;;;;;;;;;;;;;;;17.85;44.19;100192.08;1782809;78;20328;-79
2021/05/13 05:14:26;;;;;;;;;;;;;;;17.86;44.37;100189.67;1793233;78;20245;-79
2021/05/13 05:16:57;;;;;;;;;;;;;;;17.92;44.68;100195.58;1780073;78;20223;-79
2021/05/13 05:19:24;;;;;;;;;;;;;;;17.98;44.38;100196.60;1782908;79;20296;-79
2021/05/13 05:21:50;;;;;;;;;;;;;;;17.96;43.42;100193.29;1787482;78;20688;-78
2021/05/13 05:24:16;;;;;;;;;;;;;;;17.80;43.34;100182.89;1779770;78;20297;-78
2021/05/13 05:26:43;;;;;;;;;;;;;;;17.73;43.88;100182.89;1781579;78;20227;-77
2021/05/13 05:29:09;;;;;;;;;;;;;;;17.79;44.11;100177.17;1784432;78;20635;-77
2021/05/13 05:31:35;;;;;;;;;;;;;;;17.82;43.87;100178.11;1786999;78;20193;-77
2021/05/13 05:34:01;;;;;;;;;;;;;;;17.82;44.08;100183.53;1787040;78;20317;-78
2021/05/13 05:36:28;;;;;;;;;;;;;;;17.84;44.25;100185.50;1790092;78;20155;-78
2021/05/13 05:38:55;;;;;;;;;;;;;;;17.84;44.28;100179.55;1784520;78;20235;-78
2021/05/13 05:41:22;;;;;;;;;;;;;;;17.85;44.18;100174.47;1780917;78;20181;-77
2021/05/13 05:43:48;;;;;;;;;;;;;;;17.84;44.17;100184.14;1780476;78;20672;-78
2021/05/13 05:46:14;;;;;;;;;;;;;;;17.84;44.20;100184.14;1762442;78;20599;-77
2021/05/13 05:48:40;;;;;;;;;;;;;;;17.89;44.17;100181.62;1787767;77;20154;-78
2021/05/13 05:51:06;;;;;;;;;;;;;;;17.92;43.89;100175.78;1790758;77;20204;-79
2021/05/13 05:53:32;;;;;;;;;;;;;;;17.95;43.75;100182.14;1795597;77;20163;-79
2021/05/13 05:56:02;;;;;;;;;;;;;;;18.03;43.94;100186.48;1797649;78;20186;-80
2021/05/13 05:58:28;;;;;;;;;;;;;;;18.12;43.21;100184.70;1787946;78;20191;-78
2021/05/13 06:00:54;;;;;;;;;;;;;;;18.22;43.65;100183.71;1785845;78;20181;-78
2021/05/13 06:03:20;;;;;;;;;;;;;;;18.36;43.25;100190.44;1797020;77;20226;-78
2021/05/13 06:05:46;;;;;;;;;;;;;;;18.50;43.35;100194.75;1785828;78;20163;-78
2021/05/13 06:08:12;;;;;;;;;;;;;;;18.71;42.93;100188.17;1791670;78;20227;-77
2021/05/13 06:10:38;;;;;;;;;;;;;;;18.93;42.29;100184.06;1787761;78;20192;-78
2021/05/13 06:13:07;;;;;;;;;;;;;;;19.17;41.34;100187.88;1787458;78;20202;-79
2021/05/13 06:15:32;;;;;;;;;;;;;;;19.36;40.95;100179.78;1785387;78;20310;-80
2021/05/13 06:17:58;;;;;;;;;;;;;;;19.56;39.95;100185.84;1783227;79;20291;-78
2021/05/13 06:20:25;;;;;;;;;;;;;;;19.70;39.26;100181.97;1787384;78;20384;-78
2021/05/13 06:22:51;;;;;;;;;;;;;;;19.83;38.67;100176.94;1787693;78;20183;-79
2021/05/13 06:25:18;;;;;;;;;;;;;;;19.97;38.24;100173.54;1790111;78;20240;-79
2021/05/13 06:27:44;;;;;;;;;;;;;;;20.16;38.25;100177.08;1786458;78;20226;-79
2021/05/13 06:30:11;;;;;;;;;;;;;;;20.33;37.64;100180.02;1773792;79;20145;-79
2021/05/13 06:32:37;;;;;;;;;;;;;;;20.46;37.12;100183.92;1790196;77;20568;-78
2021/05/13 06:35:03;;;;;;;;;;;;;;;20.58;37.04;100175.32;1792822;79;20184;-79
2021/05/13 06:37:29;;;;;;;;;;;;;;;20.66;36.69;100177.69;1793070;78;20569;-80
2021/05/13 06:39:56;;;;;;;;;;;;;;;20.77;37.05;100176.09;1766000;78;20147;-79
2021/05/13 06:42:22;;;;;;;;;;;;;;;20.94;36.15;100177.62;1801571;78;20154;-80
2021/05/13 06:44:48;;;;;;;;;;;;;;;21.07;36.42;100167.86;1783165;78;20223;-80
2021/05/13 06:47:14;;;;;;;;;;;;;;;21.20;35.81;100173.09;1791474;78;20175;-78
2021/05/13 06:49:40;;;;;;;;;;;;;;;21.31;35.96;100177.45;1791009;77;20184;-76
2021/05/13 06:52:06;;;;;;;;;;;;;;;21.42;35.37;100173.39;1787252;78;20185;-78
2021/05/13 06:54:33;;;;;;;;;;;;;;;21.59;35.33;100174.88;1789257;78;20724;-80
2021/05/13 06:57:01;;;;;;;;;;;;;;;21.74;34.04;100187.48;1789587;77;20159;-79
2021/05/13 07:03:43;;;;;;;;;;;;;;;21.71;33.86;100178.95;1703179;81;20205;-80
2021/05/13 07:06:11;;;;;;;;;;;;;;;21.72;33.73;100180.63;1703507;82;20247;-80
2021/05/13 07:08:40;;;;;;;;;;;;;;;21.76;34.36;100186.73;1708054;81;20292;-80
2021/05/13 07:11:07;;;;;;;;;;;;;;;21.77;34.48;100184.29;1732583;80;20158;-80
2021/05/13 07:13:33;;;;;;;;;;;;;;;21.75;34.85;100185.05;1722391;81;20228;-80
2021/05/13 07:16:00;;;;;;;;;;;;;;;21.78;34.52;100192.75;1737911;81;21071;-79
2021/05/13 07:18:26;;;;;;;;;;;;;;;21.83;34.93;100175.69;1737463;81;20242;-80
2021/05/13 07:20:52;;;;;;;;;;;;;;;21.93;35.15;100176.44;1791866;78;20167;-80
2021/05/13 07:23:26;;;;;;;;;;;;;;;22.06;34.74;100178.08;1747734;80;20266;-80
2021/05/13 07:25:57;;;;;;;;;;;;;;;22.19;34.96;100184.13;1712837;81;20256;-81
2021/05/13 07:28:24;;;;;;;;;;;;;;;22.25;35.20;100192.70;1723257;81;20228;-80
2021/05/13 07:30:51;;;;;;;;;;;;;;;22.11;35.85;100191.28;1717969;81;20632;-81
2021/05/13 07:33:18;;;;;;;;;;;;;;;22.01;36.41;100188.34;1743676;80;20208;-81
2021/05/13 07:35:47;;;;;;;;;;;;;;;21.96;36.89;100192.33;1711187;81;20229;-80
2021/05/13 07:38:15;;;;;;;;;;;;;;;21.86;37.26;100194.84;1740636;80;20267;-80
2021/05/13 07:40:47;;;;;;;;;;;;;;;21.71;37.77;100194.80;1739672;80;20995;-81
2021/05/13 07:43:13;;;;;;;;;;;;;;;21.52;38.40;100198.14;1784409;78;20239;-79
2021/05/13 07:45:43;;;;;;;;;;;;;;;21.40;39.06;100204.14;1785846;78;20637;-80
2021/05/13 07:48:08;;;;;;;;;;;;;;;21.29;39.42;100209.82;1791652;78;20175;-80
2021/05/13 07:50:34;;;;;;;;;;;;;;;21.14;39.67;100197.20;1769289;78;20175;-80
2021/05/13 07:53:07;;;;;;;;;;;;;;;21.04;40.04;100196.94;1790675;78;20659;-80
2021/05/13 07:55:34;;;;;;;;;;;;;;;20.99;40.25;100199.54;1787013;78;20957;-80
2021/05/13 07:58:03;;;;;;;;;;;;;;;20.94;40.52;100198.05;1796088;77;20182;-80
2021/05/13 08:00:32;;;;;;;;;;;;;;;20.94;40.56;100200.77;1789023;78;20697;-80
2021/05/13 08:03:03;;;;;;;;;;;;;;;20.90;40.66;100184.60;1762578;79;20266;-80
2021/05/13 08:05:29;;;;;;;;;;;;;;;20.87;40.84;100198.66;1785980;78;20330;-81
2021/05/13 08:07:56;;;;;;;;;;;;;;;20.74;40.78;100201.04;1787233;78;20230;-79
2021/05/13 08:10:26;;;;;;;;;;;;;;;20.61;41.26;100193.89;1784826;78;20263;-79
2021/05/13 08:12:52;;;;;;;;;;;;;;;20.48;41.40;100200.36;1792875;78;20208;-78
2021/05/13 08:15:17;;;;;;;;;;;;;;;20.37;41.67;100193.46;1790125;78;20269;-78
2021/05/13 08:17:43;;;;;;;;;;;;;;;20.37;41.76;100195.64;1788121;78;20162;-79
2021/05/13 08:20:12;;;;;;;;;;;;;;;20.44;41.90;100198.30;1789470;78;20141;-79
2021/05/13 08:22:39;;;;;;;;;;;;;;;20.49;42.02;100203.91;1787237;78;20191;-80
2021/05/13 08:25:06;;;;;;;;;;;;;;;20.47;42.03;100205.98;1766699;78;20294;-79
2021/05/13 08:27:34;;;;;;;;;;;;;;;20.55;41.88;100209.78;1759808;79;20167;-79
2021/05/13 08:30:00;;;;;;;;;;;;;;;20.70;41.60;100207.47;1787212;78;20684;-78
2021/05/13 08:32:26;;;;;;;;;;;;;;;20.81;41.29;100207.23;1785735;78;20185;-78
2021/05/13 08:34:52;;;;;;;;;;;;;;;20.91;40.67;100201.23;1787290;78;20888;-78
2021/05/13 08:37:19;;;;;;;;;;;;;;;21.02;40.38;100208.58;1790473;78;20234;-79
2021/05/13 08:39:45;;;;;;;;;;;;;;;21.15;40.03;100202.93;1786060;78;20264;-79
2021/05/13 08:42:12;;;;;;;;;;;;;;;21.27;39.60;100216.05;1787295;78;20196;-79
2021/05/13 08:44:40;;;;;;;;;;;;;;;21.31;39.69;100206.91;1793101;78;20195;-79
2021/05/13 08:47:08;;;;;;;;;;;;;;;21.39;39.87;100207.94;1791660;78;20555;-78
2021/05/13 08:49:35;;;;;;;;;;;;;;;21.42;39.35;100218.34;1745168;80;20270;-78
2021/05/13 08:52:09;;;;;;;;;;;;;;;21.23;39.28;100201.23;1703058;82;20159;-79
2021/05/13 08:54:36;;;;;;;;;;;;;;;21.15;39.67;100206.19;1785530;78;20166;-78
2021/05/13 08:57:02;;;;;;;;;;;;;;;21.16;39.64;100205.12;1787771;77;20188;-78
2021/05/13 08:59:28;;;;;;;;;;;;;;;21.10;39.97;100194.64;1783829;78;20209;-79
2021/05/13 09:02:02;;;;;;;;;;;;;;;21.03;40.41;100193.39;1790683;78;20215;-78
2021/05/13 09:04:40;;;;;;;;;;;;;;;21.11;40.62;100185.39;1787518;78;20186;-82
2021/05/13 09:07:15;;;;;;;;;;;;;;;21.20;40.35;100194.06;1785632;78;20196;-81
2021/05/13 09:10:02;;;;;;;;;;;;;;;21.27;40.55;100207.05;1784758;78;20197;-80
2021/05/13 09:12:34;;;;;;;;;;;;;;;21.33;40.74;100201.22;1792730;78;20157;-79
2021/05/13 09:15:21;;;;;;;;;;;;;;;21.33;40.65;100187.59;1790655;78;20165;-80
2021/05/13 09:17:53;;;;;;;;;;;;;;;21.31;40.81;100191.94;1787308;78;20152;-80
2021/05/13 09:20:28;;;;;;;;;;;;;;;21.24;40.92;100180.27;1753069;78;20162;-83
2021/05/13 09:23:26;;;;;;;;;;;;;;;21.25;41.12;100186.01;1786936;78;20164;-78
2021/05/13 09:26:08;;;;;;;;;;;;;;;21.16;40.58;100189.60;1788437;78;20276;-79
2021/05/13 09:28:34;;;;;;;;;;;;;;;20.93;41.11;100192.28;1746581;80;20604;-78
2021/05/13 09:31:01;;;;;;;;;;;;;;;20.76;41.54;100182.07;1751821;79;20332;-78
2021/05/13 09:33:28;;;;;;;;;;;;;;;20.74;41.86;100165.66;1702801;81;20334;-79
2021/05/13 09:35:54;;;;;;;;;;;;;;;20.78;41.61;100167.69;1721860;82;20343;-79
2021/05/13 09:38:38;;;;;;;;;;;;;;;20.75;41.99;100173.58;1727856;82;20432;-80
2021/05/13 09:41:04;;;;;;;;;;;;;;;20.72;42.07;100177.33;1726650;80;20916;-77
2021/05/13 09:43:32;;;;;;;;;;;;;;;20.69;42.48;100155.47;1745446;80;20365;-81
2021/05/13 09:45:59;;;;;;;;;;;;;;;20.73;42.39;100169.45;1684554;81;20781;-79
2021/05/13 09:48:44;;;;;;;;;;;;;;;20.72;42.13;100172.70;1749369;80;20738;-79
2021/05/13 09:51:29;;;;;;;;;;;;;;;20.67;42.35;100156.24;1728354;80;20649;-80
2021/05/13 09:54:15;;;;;;;;;;;;;;;20.71;42.52;100166.97;1742452;80;20167;-78
2021/05/13 09:56:48;;;;;;;;;;;;;;;20.69;42.70;100160.91;1725322;80;20278;-76
2021/05/13 09:59:22;;;;;;;;;;;;;;;20.69;42.55;100166.35;1788177;78;20232;-78
2021/05/13 10:01:51;;;;;;;;;;;;;;;20.64;42.31;100162.14;1782892;78;20239;-79
2021/05/13 10:04:17;;;;;;;;;;;;;;;20.64;42.43;100154.51;1744042;80;20261;-79
2021/05/13 10:06:45;;;;;;;;;;;;;;;20.63;42.24;100165.10;1747612;80;20324;-80
2021/05/13 10:09:18;;;;;;;;;;;;;;;20.55;42.57;100156.72;1702934;82;20298;-80
2021/05/13 10:11:56;;;;;;;;;;;;;;;20.52;42.67;100148.48;1725947;80;20647;-78
2021/05/13 10:14:24;;;;;;;;;;;;;;;20.58;42.18;100171.23;1788056;78;20182;-78
2021/05/13 10:16:53;;;;;;;;;;;;;;;20.59;41.54;100152.48;1782613;78;20145;-78
2021/05/13 10:19:22;;;;;;;;;;;;;;;20.59;41.79;100161.18;1748154;78;20257;-79
2021/05/13 10:21:50;;;;;;;;;;;;;;;20.57;41.67;100148.32;1743885;79;20719;-79
2021/05/13 10:24:16;;;;;;;;;;;;;;;20.62;41.77;100150.67;1714491;81;20165;-79
2021/05/13 10:26:45;;;;;;;;;;;;;;;20.67;41.33;100152.16;1713093;80;20218;-79
2021/05/13 10:29:26;;;;;;;;;;;;;;;20.67;41.34;100162.22;1742377;80;20206;-81
2021/05/13 10:32:22;;;;;;;;;;;;;;;20.65;41.62;100160.25;1745016;80;20676;-80
2021/05/13 10:34:54;;;;;;;;;;;;;;;20.69;41.62;100158.19;1785622;78;20778;-79
2021/05/13 10:37:32;;;;;;;;;;;;;;;20.73;41.62;100167.55;1788792;77;20203;-78
2021/05/13 10:40:24;;;;;;;;;;;;;;;20.76;42.12;100163.55;1792197;78;20266;-79
2021/05/13 10:42:59;;;;;;;;;;;;;;;20.78;42.13;100162.23;1784708;77;20422;-78
2021/05/13 10:45:29;;;;;;;;;;;;;;;20.74;41.88;100166.48;1786603;78;20183;-81
2021/05/13 10:48:17;;;;;;;;;;;;;;;20.80;40.94;100160.64;1795518;78;20487;-79
2021/05/13 10:50:51;;;;;;;;;;;;;;;20.84;40.94;100163.73;1800492;78;20465;-79
2021/05/13 10:53:47;;;;;;;;;;;;;;;20.80;40.63;100162.53;1786280;78;20169;-80
2021/05/13 10:56:29;;;;;;;;;;;;;;;20.75;40.91;100164.05;1792251;78;20227;-78
2021/05/13 10:59:04;;;;;;;;;;;;;;;20.74;41.15;100164.30;1792585;78;20174;-79
2021/05/13 11:01:52;;;;;;;;;;;;;;;20.75;41.00;100164.05;1783275;78;20183;-80
2021/05/13 11:04:27;;;;;;;;;;;;;;;20.74;41.12;100162.94;1800526;78;20215;-80
2021/05/13 11:06:59;;;;;;;;;;;;;;;20.80;41.00;100163.89;1804476;78;20264;-79
2021/05/13 11:09:47;;;;;;;;;;;;;;;20.80;40.93;100163.89;1775283;78;20239;-80
2021/05/13 11:12:20;;;;;;;;;;;;;;;20.79;40.88;100160.34;1790281;78;20182;-79
2021/05/13 11:15:15;;;;;;;;;;;;;;;20.74;41.20;100165.66;1784549;78;20290;-79
2021/05/13 11:20:25;;;;;;;;;;;;;;;20.68;41.23;100184.28;1791699;78;20246;-79
2021/05/13 11:23:07;;;;;;;;;;;;;;;20.60;41.30;100181.34;1791942;78;20199;-81
2021/05/13 11:25:42;;;;;;;;;;;;;;;20.44;41.77;100177.36;1759659;78;20247;-82
2021/05/13 11:28:30;;;;;;;;;;;;;;;20.34;41.94;100178.95;1793064;78;20554;-82
2021/05/13 11:31:08;;;;;;;;;;;;;;;20.21;42.06;100177.22;1783417;78;20306;-82
2021/05/13 11:33:56;;;;;;;;;;;;;;;20.11;42.91;100175.03;1761798;79;20250;-80
2021/05/13 11:36:29;;;;;;;;;;;;;;;20.06;43.44;100164.02;1789201;78;20707;-81
2021/05/13 11:39:07;;;;;;;;;;;;;;;20.06;43.43;100163.19;1793185;78;20609;-81
2021/05/13 11:41:29;;;;;;;;;;;;;;;20.02;43.38;100163.64;1749157;80;20811;-83
2021/05/13 11:43:59;;;;;;;;;;;;;;;20.03;43.43;100156.34;1725535;81;20331;-78
2021/05/13 11:46:29;;;;;;;;;;;;;;;20.02;43.20;100154.12;1797567;78;20267;-82
2021/05/13 11:48:56;;;;;;;;;;;;;;;20.05;43.22;100147.41;1797831;78;20311;-82
2021/05/13 11:51:33;;;;;;;;;;;;;;;20.11;43.03;100157.36;1791753;78;20253;-81
2021/05/13 11:54:02;;;;;;;;;;;;;;;20.10;43.25;100148.91;1772968;78;20302;-81
2021/05/13 11:56:30;;;;;;;;;;;;;;;20.09;43.50;100148.62;1789576;78;20278;-79
2021/05/13 11:59:00;;;;;;;;;;;;;;;20.07;43.35;100150.72;1790098;77;20290;-81
2021/05/13 12:01:46;;;;;;;;;;;;;;;20.08;43.15;100157.84;1789248;78;20361;-80
2021/05/13 12:04:28;;;;;;;;;;;;;;;20.06;42.75;100159.94;1782753;78;20377;-81
2021/05/13 12:06:55;;;;;;;;;;;;;;;20.00;43.12;100154.06;1788848;78;20285;-81
2021/05/13 12:09:22;;;;;;;;;;;;;;;19.97;43.58;100139.55;1744804;80;20387;-80
2021/05/13 12:11:50;;;;;;;;;;;;;;;19.96;43.51;100144.17;1696772;81;20351;-78
2021/05/13 12:14:27;;;;;;;;;;;;;;;19.94;43.54;100141.36;1729702;80;20265;-80
2021/05/13 12:16:52;;;;;;;;;;;;;;;19.94;43.43;100137.28;1730313;82;20229;-78
2021/05/13 12:19:20;;;;;;;;;;;;;;;19.93;43.59;100135.09;1787559;78;20299;-79
2021/05/13 12:21:48;;;;;;;;;;;;;;;19.98;43.49;100133.05;1766548;78;20326;-81
2021/05/13 12:24:37;;;;;;;;;;;;;;;20.02;43.68;100141.06;1771090;78;20177;-80
2021/05/13 12:27:05;;;;;;;;;;;;;;;19.98;43.95;100140.70;1767272;78;20674;-79
2021/05/13 12:29:34;;;;;;;;;;;;;;;20.09;43.87;100141.00;1788458;78;20517;-82
2021/05/13 12:32:02;;;;;;;;;;;;;;;20.15;43.93;100130.02;1794952;79;20180;-78
2021/05/13 12:34:37;;;;;;;;;;;;;;;20.18;43.56;100139.63;1737786;79;20162;-79
2021/05/13 12:37:03;;;;;;;;;;;;;;;20.25;43.45;100139.81;1721374;82;20204;-78
2021/05/13 12:39:35;;;;;;;;;;;;;;;20.30;43.22;100142.38;1671219;82;20189;-80
2021/05/13 12:42:06;;;;;;;;;;;;;;;20.32;43.35;100137.56;1706272;82;20233;-79
2021/05/13 12:44:32;;;;;;;;;;;;;;;20.36;43.42;100130.07;1701493;82;20237;-79
2021/05/13 12:47:01;;;;;;;;;;;;;;;20.39;43.28;100127.40;1701281;82;20201;-79
2021/05/13 12:49:29;;;;;;;;;;;;;;;20.40;43.17;100138.61;1702630;82;20465;-79
2021/05/13 12:51:59;;;;;;;;;;;;;;;20.42;43.03;100140.02;1700300;82;20205;-79
2021/05/13 12:54:25;;;;;;;;;;;;;;;20.44;43.05;100137.09;1704007;82;20713;-79
2021/05/13 12:56:51;;;;;;;;;;;;;;;20.47;43.11;100132.52;1703460;82;20169;-79